sensor_id;sensor_type;location;lat;lon;timestamp;temperature;humidity
45233;DHT22;30969;51.052;17.056;2023-09-30T00:04:52;22.10;52.90
45233;DHT22;30969;51.052;17.056;2023-09-30T00:09:56;22.10;53.30
45233;DHT22;30969;51.052;17.056;2023-09-30T00:14:59;22.00;53.30
45233;DHT22;30969;51.052;17.056;2023-09-30T00:20:04;22.00;53.70
45233;DHT22;30969;51.052;17.056;2023-09-30T00:25:09;21.90;53.80
45233;DHT22;30969;51.052;17.056;2023-09-30T00:30:13;21.90;54.10
45233;DHT22;30969;51.052;17.056;2023-09-30T00:35:17;22.00;54.30
45233;DHT22;30969;51.052;17.056;2023-09-30T00:40:21;22.00;54.40
45233;DHT22;30969;51.052;17.056;2023-09-30T00:45:24;22.00;54.50
45233;DHT22;30969;51.052;17.056;2023-09-30T00:50:29;22.00;54.80
45233;DHT22;30969;51.052;17.056;2023-09-30T00:55:32;21.90;54.80
45233;DHT22;30969;51.052;17.056;2023-09-30T01:00:36;21.90;55.00
45233;DHT22;30969;51.052;17.056;2023-09-30T01:05:41;22.00;55.10
45233;DHT22;30969;51.052;17.056;2023-09-30T01:10:45;22.00;55.00
45233;DHT22;30969;51.052;17.056;2023-09-30T01:15:48;22.10;55.30
45233;DHT22;30969;51.052;17.056;2023-09-30T01:20:53;22.10;55.50
45233;DHT22;30969;51.052;17.056;2023-09-30T01:25:58;22.10;55.60
45233;DHT22;30969;51.052;17.056;2023-09-30T01:31:05;22.10;56.70
45233;DHT22;30969;51.052;17.056;2023-09-30T01:36:08;22.10;56.70
45233;DHT22;30969;51.052;17.056;2023-09-30T01:41:13;22.00;56.30
45233;DHT22;30969;51.052;17.056;2023-09-30T01:46:18;22.00;56.10
45233;DHT22;30969;51.052;17.056;2023-09-30T01:51:22;22.00;56.30
45233;DHT22;30969;51.052;17.056;2023-09-30T01:56:27;22.00;56.50
45233;DHT22;30969;51.052;17.056;2023-09-30T02:01:30;22.00;56.60
45233;DHT22;30969;51.052;17.056;2023-09-30T02:06:34;22.10;56.80
45233;DHT22;30969;51.052;17.056;2023-09-30T02:11:39;22.10;57.00
45233;DHT22;30969;51.052;17.056;2023-09-30T02:16:44;22.10;57.60
45233;DHT22;30969;51.052;17.056;2023-09-30T02:21:47;22.10;57.60
45233;DHT22;30969;51.052;17.056;2023-09-30T02:26:53;22.10;58.20
45233;DHT22;30969;51.052;17.056;2023-09-30T02:31:56;22.10;59.50
45233;DHT22;30969;51.052;17.056;2023-09-30T02:36:59;22.10;58.60
45233;DHT22;30969;51.052;17.056;2023-09-30T02:42:04;22.10;59.30
45233;DHT22;30969;51.052;17.056;2023-09-30T02:47:08;22.20;59.80
45233;DHT22;30969;51.052;17.056;2023-09-30T02:52:12;22.20;59.50
45233;DHT22;30969;51.052;17.056;2023-09-30T02:57:17;22.20;59.50
45233;DHT22;30969;51.052;17.056;2023-09-30T03:02:21;22.10;59.30
45233;DHT22;30969;51.052;17.056;2023-09-30T03:07:24;22.10;58.80
45233;DHT22;30969;51.052;17.056;2023-09-30T03:12:29;22.20;58.80
45233;DHT22;30969;51.052;17.056;2023-09-30T03:17:33;22.10;58.90
45233;DHT22;30969;51.052;17.056;2023-09-30T03:22:38;22.20;58.90
45233;DHT22;30969;51.052;17.056;2023-09-30T03:27:43;22.20;59.00
45233;DHT22;30969;51.052;17.056;2023-09-30T03:32:48;22.20;59.00
45233;DHT22;30969;51.052;17.056;2023-09-30T03:37:52;22.10;58.90
45233;DHT22;30969;51.052;17.056;2023-09-30T03:42:56;22.10;59.00
45233;DHT22;30969;51.052;17.056;2023-09-30T03:48:00;22.10;59.10
45233;DHT22;30969;51.052;17.056;2023-09-30T03:53:05;22.10;58.70
45233;DHT22;30969;51.052;17.056;2023-09-30T03:58:11;22.10;59.30
45233;DHT22;30969;51.052;17.056;2023-09-30T04:03:14;22.10;59.60
45233;DHT22;30969;51.052;17.056;2023-09-30T04:08:18;22.00;60.00
45233;DHT22;30969;51.052;17.056;2023-09-30T04:13:23;22.00;60.20
45233;DHT22;30969;51.052;17.056;2023-09-30T04:18:27;21.90;60.20
45233;DHT22;30969;51.052;17.056;2023-09-30T04:23:30;21.80;61.40
45233;DHT22;30969;51.052;17.056;2023-09-30T04:28:35;21.80;61.60
45233;DHT22;30969;51.052;17.056;2023-09-30T04:33:38;21.80;61.90
45233;DHT22;30969;51.052;17.056;2023-09-30T04:38:42;21.70;61.70
45233;DHT22;30969;51.052;17.056;2023-09-30T04:43:48;21.70;61.80
45233;DHT22;30969;51.052;17.056;2023-09-30T04:48:51;21.60;61.40
45233;DHT22;30969;51.052;17.056;2023-09-30T04:53:55;21.60;61.30
45233;DHT22;30969;51.052;17.056;2023-09-30T04:59:01;21.60;61.60
45233;DHT22;30969;51.052;17.056;2023-09-30T05:04:07;21.60;61.50
45233;DHT22;30969;51.052;17.056;2023-09-30T05:09:11;21.60;61.80
45233;DHT22;30969;51.052;17.056;2023-09-30T05:14:16;21.50;62.00
45233;DHT22;30969;51.052;17.056;2023-09-30T05:19:22;21.50;62.10
45233;DHT22;30969;51.052;17.056;2023-09-30T05:24:26;21.50;62.20
45233;DHT22;30969;51.052;17.056;2023-09-30T05:29:31;21.40;62.60
45233;DHT22;30969;51.052;17.056;2023-09-30T05:34:36;21.40;63.10
45233;DHT22;30969;51.052;17.056;2023-09-30T05:39:42;21.30;63.70
45233;DHT22;30969;51.052;17.056;2023-09-30T05:44:49;21.30;63.90
45233;DHT22;30969;51.052;17.056;2023-09-30T05:49:53;21.30;64.40
45233;DHT22;30969;51.052;17.056;2023-09-30T05:54:57;21.20;64.80
45233;DHT22;30969;51.052;17.056;2023-09-30T06:00:04;21.20;65.20
45233;DHT22;30969;51.052;17.056;2023-09-30T06:05:22;21.10;65.50
45233;DHT22;30969;51.052;17.056;2023-09-30T06:10:28;21.10;66.80
45233;DHT22;30969;51.052;17.056;2023-09-30T06:15:33;21.10;66.30
45233;DHT22;30969;51.052;17.056;2023-09-30T06:20:36;21.00;66.20
45233;DHT22;30969;51.052;17.056;2023-09-30T06:25:40;21.00;66.50
45233;DHT22;30969;51.052;17.056;2023-09-30T06:30:45;20.90;66.50
45233;DHT22;30969;51.052;17.056;2023-09-30T06:35:49;20.90;66.40
45233;DHT22;30969;51.052;17.056;2023-09-30T06:40:53;20.90;65.30
45233;DHT22;30969;51.052;17.056;2023-09-30T06:46:00;20.80;64.80
45233;DHT22;30969;51.052;17.056;2023-09-30T06:51:12;20.70;64.10
45233;DHT22;30969;51.052;17.056;2023-09-30T06:56:16;20.50;63.60
45233;DHT22;30969;51.052;17.056;2023-09-30T07:01:22;20.40;63.60
45233;DHT22;30969;51.052;17.056;2023-09-30T07:06:26;20.40;63.70
45233;DHT22;30969;51.052;17.056;2023-09-30T07:11:30;20.30;63.90
45233;DHT22;30969;51.052;17.056;2023-09-30T07:16:36;20.20;64.10
45233;DHT22;30969;51.052;17.056;2023-09-30T07:21:40;20.20;64.20
45233;DHT22;30969;51.052;17.056;2023-09-30T07:26:45;20.20;64.20
45233;DHT22;30969;51.052;17.056;2023-09-30T07:31:50;20.10;64.20
45233;DHT22;30969;51.052;17.056;2023-09-30T07:36:54;20.00;64.20
45233;DHT22;30969;51.052;17.056;2023-09-30T07:41:57;20.00;64.10
45233;DHT22;30969;51.052;17.056;2023-09-30T07:47:04;20.00;64.20
45233;DHT22;30969;51.052;17.056;2023-09-30T07:52:09;19.90;64.20
45233;DHT22;30969;51.052;17.056;2023-09-30T07:57:13;19.90;64.20
45233;DHT22;30969;51.052;17.056;2023-09-30T08:02:18;19.80;64.20
45233;DHT22;30969;51.052;17.056;2023-09-30T08:07:21;19.60;64.20
45233;DHT22;30969;51.052;17.056;2023-09-30T08:12:24;19.60;62.90
45233;DHT22;30969;51.052;17.056;2023-09-30T08:17:30;19.60;62.20
45233;DHT22;30969;51.052;17.056;2023-09-30T08:22:34;19.60;61.40
45233;DHT22;30969;51.052;17.056;2023-09-30T08:27:37;19.50;61.10
45233;DHT22;30969;51.052;17.056;2023-09-30T08:32:43;19.60;60.50
45233;DHT22;30969;51.052;17.056;2023-09-30T08:37:48;19.60;60.00
45233;DHT22;30969;51.052;17.056;2023-09-30T08:42:52;19.60;59.90
45233;DHT22;30969;51.052;17.056;2023-09-30T08:47:57;19.70;59.50
45233;DHT22;30969;51.052;17.056;2023-09-30T08:53:06;19.70;58.80
45233;DHT22;30969;51.052;17.056;2023-09-30T08:58:12;19.70;58.10
45233;DHT22;30969;51.052;17.056;2023-09-30T09:03:19;19.70;58.00
45233;DHT22;30969;51.052;17.056;2023-09-30T09:08:23;19.70;57.50
45233;DHT22;30969;51.052;17.056;2023-09-30T09:13:27;19.70;56.90
45233;DHT22;30969;51.052;17.056;2023-09-30T09:18:32;19.60;57.00
45233;DHT22;30969;51.052;17.056;2023-09-30T09:23:39;19.60;55.70
45233;DHT22;30969;51.052;17.056;2023-09-30T09:28:43;19.70;55.50
45233;DHT22;30969;51.052;17.056;2023-09-30T09:33:47;19.70;54.80
45233;DHT22;30969;51.052;17.056;2023-09-30T09:38:51;19.70;55.00
45233;DHT22;30969;51.052;17.056;2023-09-30T09:43:55;19.80;55.30
45233;DHT22;30969;51.052;17.056;2023-09-30T09:49:03;19.90;55.20
45233;DHT22;30969;51.052;17.056;2023-09-30T09:54:07;19.90;55.20
45233;DHT22;30969;51.052;17.056;2023-09-30T09:59:11;19.90;54.80
45233;DHT22;30969;51.052;17.056;2023-09-30T10:04:17;20.00;54.90
45233;DHT22;30969;51.052;17.056;2023-09-30T10:09:20;20.00;54.70
45233;DHT22;30969;51.052;17.056;2023-09-30T10:14:31;20.10;54.40
45233;DHT22;30969;51.052;17.056;2023-09-30T10:19:38;20.10;54.00
45233;DHT22;30969;51.052;17.056;2023-09-30T10:25:01;20.20;54.40
45233;DHT22;30969;51.052;17.056;2023-09-30T10:30:25;20.30;54.20
45233;DHT22;30969;51.052;17.056;2023-09-30T10:35:43;20.30;53.30
45233;DHT22;30969;51.052;17.056;2023-09-30T10:40:46;20.40;52.80
45233;DHT22;30969;51.052;17.056;2023-09-30T10:45:50;20.40;52.60
45233;DHT22;30969;51.052;17.056;2023-09-30T10:50:55;20.50;52.60
45233;DHT22;30969;51.052;17.056;2023-09-30T10:56:03;20.50;52.10
45233;DHT22;30969;51.052;17.056;2023-09-30T11:01:07;20.50;51.70
45233;DHT22;30969;51.052;17.056;2023-09-30T11:06:14;20.50;51.70
45233;DHT22;30969;51.052;17.056;2023-09-30T11:11:31;20.50;51.20
45233;DHT22;30969;51.052;17.056;2023-09-30T11:16:41;20.60;51.00
45233;DHT22;30969;51.052;17.056;2023-09-30T11:21:49;20.60;50.00
45233;DHT22;30969;51.052;17.056;2023-09-30T11:26:53;20.60;50.00
45233;DHT22;30969;51.052;17.056;2023-09-30T11:31:57;20.70;50.10
45233;DHT22;30969;51.052;17.056;2023-09-30T11:37:02;20.70;49.60
45233;DHT22;30969;51.052;17.056;2023-09-30T11:42:14;20.70;49.60
45233;DHT22;30969;51.052;17.056;2023-09-30T11:47:27;20.70;49.40
45233;DHT22;30969;51.052;17.056;2023-09-30T11:52:33;20.70;49.20
45233;DHT22;30969;51.052;17.056;2023-09-30T11:57:38;20.70;48.70
45233;DHT22;30969;51.052;17.056;2023-09-30T12:02:41;20.80;48.30
45233;DHT22;30969;51.052;17.056;2023-09-30T12:07:46;20.80;49.10
45233;DHT22;30969;51.052;17.056;2023-09-30T12:12:49;20.80;48.80
45233;DHT22;30969;51.052;17.056;2023-09-30T12:17:53;20.90;48.60
45233;DHT22;30969;51.052;17.056;2023-09-30T12:22:58;20.90;48.60
45233;DHT22;30969;51.052;17.056;2023-09-30T12:28:01;21.00;48.70
45233;DHT22;30969;51.052;17.056;2023-09-30T12:33:05;21.10;48.30
45233;DHT22;30969;51.052;17.056;2023-09-30T12:38:10;21.20;48.10
45233;DHT22;30969;51.052;17.056;2023-09-30T12:43:13;21.30;47.90
45233;DHT22;30969;51.052;17.056;2023-09-30T12:48:17;21.50;47.60
45233;DHT22;30969;51.052;17.056;2023-09-30T12:53:21;21.60;46.70
45233;DHT22;30969;51.052;17.056;2023-09-30T12:58:25;21.70;46.80
45233;DHT22;30969;51.052;17.056;2023-09-30T13:03:29;21.80;46.70
45233;DHT22;30969;51.052;17.056;2023-09-30T13:08:34;21.90;46.20
45233;DHT22;30969;51.052;17.056;2023-09-30T13:13:38;22.00;45.90
45233;DHT22;30969;51.052;17.056;2023-09-30T13:18:41;22.10;45.70
45233;DHT22;30969;51.052;17.056;2023-09-30T13:23:46;22.20;45.10
45233;DHT22;30969;51.052;17.056;2023-09-30T13:28:50;22.30;44.80
45233;DHT22;30969;51.052;17.056;2023-09-30T13:33:53;22.30;44.40
45233;DHT22;30969;51.052;17.056;2023-09-30T13:38:58;22.20;44.10
45233;DHT22;30969;51.052;17.056;2023-09-30T13:44:03;22.20;44.30
45233;DHT22;30969;51.052;17.056;2023-09-30T13:49:07;22.20;44.60
45233;DHT22;30969;51.052;17.056;2023-09-30T13:54:12;22.30;45.00
45233;DHT22;30969;51.052;17.056;2023-09-30T13:59:16;22.40;44.70
45233;DHT22;30969;51.052;17.056;2023-09-30T14:04:20;22.50;44.70
45233;DHT22;30969;51.052;17.056;2023-09-30T14:09:25;22.60;44.40
45233;DHT22;30969;51.052;17.056;2023-09-30T14:14:37;22.80;43.30
45233;DHT22;30969;51.052;17.056;2023-09-30T14:19:41;22.90;42.80
45233;DHT22;30969;51.052;17.056;2023-09-30T14:24:46;23.00;42.20
45233;DHT22;30969;51.052;17.056;2023-09-30T14:29:49;23.10;41.50
45233;DHT22;30969;51.052;17.056;2023-09-30T14:34:53;23.10;41.50
45233;DHT22;30969;51.052;17.056;2023-09-30T14:39:58;23.10;41.50
45233;DHT22;30969;51.052;17.056;2023-09-30T14:45:01;23.10;40.90
45233;DHT22;30969;51.052;17.056;2023-09-30T14:50:05;23.20;41.30
45233;DHT22;30969;51.052;17.056;2023-09-30T14:55:10;23.10;41.20
45233;DHT22;30969;51.052;17.056;2023-09-30T15:00:14;23.10;40.50
45233;DHT22;30969;51.052;17.056;2023-09-30T15:05:19;23.00;40.60
45233;DHT22;30969;51.052;17.056;2023-09-30T15:10:23;22.80;40.30
45233;DHT22;30969;51.052;17.056;2023-09-30T15:15:27;22.70;40.60
45233;DHT22;30969;51.052;17.056;2023-09-30T15:20:37;22.50;41.20
45233;DHT22;30969;51.052;17.056;2023-09-30T15:25:42;22.50;41.70
45233;DHT22;30969;51.052;17.056;2023-09-30T15:30:45;22.30;41.70
45233;DHT22;30969;51.052;17.056;2023-09-30T15:35:53;22.20;41.80
45233;DHT22;30969;51.052;17.056;2023-09-30T15:40:58;22.10;42.00
45233;DHT22;30969;51.052;17.056;2023-09-30T15:46:05;21.90;42.30
45233;DHT22;30969;51.052;17.056;2023-09-30T15:51:10;21.80;42.70
45233;DHT22;30969;51.052;17.056;2023-09-30T15:56:15;21.70;42.90
45233;DHT22;30969;51.052;17.056;2023-09-30T16:01:18;21.60;43.20
45233;DHT22;30969;51.052;17.056;2023-09-30T16:06:22;21.50;43.40
45233;DHT22;30969;51.052;17.056;2023-09-30T16:11:27;21.40;43.70
45233;DHT22;30969;51.052;17.056;2023-09-30T16:16:31;21.30;43.80
45233;DHT22;30969;51.052;17.056;2023-09-30T16:21:36;21.30;44.00
45233;DHT22;30969;51.052;17.056;2023-09-30T16:26:41;21.20;44.20
45233;DHT22;30969;51.052;17.056;2023-09-30T16:31:46;21.10;44.40
45233;DHT22;30969;51.052;17.056;2023-09-30T16:36:50;21.00;44.70
45233;DHT22;30969;51.052;17.056;2023-09-30T16:41:55;20.90;44.70
45233;DHT22;30969;51.052;17.056;2023-09-30T16:46:59;20.80;44.90
45233;DHT22;30969;51.052;17.056;2023-09-30T16:52:03;20.70;45.10
45233;DHT22;30969;51.052;17.056;2023-09-30T16:57:09;20.60;45.20
45233;DHT22;30969;51.052;17.056;2023-09-30T17:02:12;20.50;45.50
45233;DHT22;30969;51.052;17.056;2023-09-30T17:07:18;20.50;45.60
45233;DHT22;30969;51.052;17.056;2023-09-30T17:12:23;20.40;45.80
45233;DHT22;30969;51.052;17.056;2023-09-30T17:17:28;20.30;46.00
45233;DHT22;30969;51.052;17.056;2023-09-30T17:22:32;20.30;46.20
45233;DHT22;30969;51.052;17.056;2023-09-30T17:27:37;20.20;46.40
45233;DHT22;30969;51.052;17.056;2023-09-30T17:32:44;20.10;46.60
45233;DHT22;30969;51.052;17.056;2023-09-30T17:37:47;20.00;46.90
45233;DHT22;30969;51.052;17.056;2023-09-30T17:42:52;19.80;47.10
45233;DHT22;30969;51.052;17.056;2023-09-30T17:47:56;19.70;47.30
45233;DHT22;30969;51.052;17.056;2023-09-30T17:53:00;19.70;47.60
45233;DHT22;30969;51.052;17.056;2023-09-30T17:58:04;19.60;47.70
45233;DHT22;30969;51.052;17.056;2023-09-30T18:03:09;19.50;47.90
45233;DHT22;30969;51.052;17.056;2023-09-30T18:08:13;19.40;48.00
45233;DHT22;30969;51.052;17.056;2023-09-30T18:13:19;19.40;48.00
45233;DHT22;30969;51.052;17.056;2023-09-30T18:18:23;19.30;48.10
45233;DHT22;30969;51.052;17.056;2023-09-30T18:23:27;19.20;48.10
45233;DHT22;30969;51.052;17.056;2023-09-30T18:28:34;19.20;49.40
45233;DHT22;30969;51.052;17.056;2023-09-30T18:33:38;19.10;48.40
45233;DHT22;30969;51.052;17.056;2023-09-30T18:38:43;19.00;48.50
45233;DHT22;30969;51.052;17.056;2023-09-30T18:43:50;19.00;48.70
45233;DHT22;30969;51.052;17.056;2023-09-30T18:48:53;18.90;48.70
45233;DHT22;30969;51.052;17.056;2023-09-30T18:53:57;18.80;48.90
45233;DHT22;30969;51.052;17.056;2023-09-30T18:59:03;18.80;49.00
45233;DHT22;30969;51.052;17.056;2023-09-30T19:04:07;18.80;49.00
45233;DHT22;30969;51.052;17.056;2023-09-30T19:09:12;18.70;49.00
45233;DHT22;30969;51.052;17.056;2023-09-30T19:14:17;18.70;49.00
45233;DHT22;30969;51.052;17.056;2023-09-30T19:19:20;18.60;49.00
45233;DHT22;30969;51.052;17.056;2023-09-30T19:24:24;18.60;49.20
45233;DHT22;30969;51.052;17.056;2023-09-30T19:29:29;18.50;49.30
45233;DHT22;30969;51.052;17.056;2023-09-30T19:34:33;18.40;49.50
45233;DHT22;30969;51.052;17.056;2023-09-30T19:39:36;18.40;49.60
45233;DHT22;30969;51.052;17.056;2023-09-30T19:44:44;18.30;49.60
45233;DHT22;30969;51.052;17.056;2023-09-30T19:49:51;18.20;49.70
45233;DHT22;30969;51.052;17.056;2023-09-30T19:54:54;18.10;49.80
45233;DHT22;30969;51.052;17.056;2023-09-30T20:00:00;18.10;49.90
45233;DHT22;30969;51.052;17.056;2023-09-30T20:05:06;18.00;50.10
45233;DHT22;30969;51.052;17.056;2023-09-30T20:10:14;17.90;50.30
45233;DHT22;30969;51.052;17.056;2023-09-30T20:15:19;17.90;50.60
45233;DHT22;30969;51.052;17.056;2023-09-30T20:20:23;17.80;50.80
45233;DHT22;30969;51.052;17.056;2023-09-30T20:25:28;17.70;50.90
45233;DHT22;30969;51.052;17.056;2023-09-30T20:30:33;17.70;51.00
45233;DHT22;30969;51.052;17.056;2023-09-30T20:35:39;17.60;51.10
45233;DHT22;30969;51.052;17.056;2023-09-30T20:40:42;17.50;51.40
45233;DHT22;30969;51.052;17.056;2023-09-30T20:45:47;17.50;51.50
45233;DHT22;30969;51.052;17.056;2023-09-30T20:50:51;17.50;51.40
45233;DHT22;30969;51.052;17.056;2023-09-30T20:55:56;17.40;51.50
45233;DHT22;30969;51.052;17.056;2023-09-30T21:01:05;17.40;51.60
45233;DHT22;30969;51.052;17.056;2023-09-30T21:06:09;17.40;51.80
45233;DHT22;30969;51.052;17.056;2023-09-30T21:11:13;17.30;52.00
45233;DHT22;30969;51.052;17.056;2023-09-30T21:16:21;17.30;52.00
45233;DHT22;30969;51.052;17.056;2023-09-30T21:21:24;17.30;52.20
45233;DHT22;30969;51.052;17.056;2023-09-30T21:26:28;17.20;52.50
45233;DHT22;30969;51.052;17.056;2023-09-30T21:31:33;17.20;52.30
45233;DHT22;30969;51.052;17.056;2023-09-30T21:36:36;17.20;52.40
45233;DHT22;30969;51.052;17.056;2023-09-30T21:41:40;17.10;52.80
45233;DHT22;30969;51.052;17.056;2023-09-30T21:46:44;17.10;52.80
45233;DHT22;30969;51.052;17.056;2023-09-30T21:51:48;17.00;52.90
45233;DHT22;30969;51.052;17.056;2023-09-30T21:56:51;17.00;52.90
45233;DHT22;30969;51.052;17.056;2023-09-30T22:01:56;16.90;53.00
45233;DHT22;30969;51.052;17.056;2023-09-30T22:07:00;16.90;53.40
45233;DHT22;30969;51.052;17.056;2023-09-30T22:12:05;16.90;53.50
45233;DHT22;30969;51.052;17.056;2023-09-30T22:17:10;16.80;53.50
45233;DHT22;30969;51.052;17.056;2023-09-30T22:22:14;16.80;53.50
45233;DHT22;30969;51.052;17.056;2023-09-30T22:27:17;16.70;53.50
45233;DHT22;30969;51.052;17.056;2023-09-30T22:32:22;16.70;53.80
45233;DHT22;30969;51.052;17.056;2023-09-30T22:37:26;16.70;53.70
45233;DHT22;30969;51.052;17.056;2023-09-30T22:42:30;16.60;54.70
45233;DHT22;30969;51.052;17.056;2023-09-30T22:47:42;16.60;53.90
45233;DHT22;30969;51.052;17.056;2023-09-30T22:52:47;16.60;53.80
45233;DHT22;30969;51.052;17.056;2023-09-30T22:57:51;16.60;54.20
45233;DHT22;30969;51.052;17.056;2023-09-30T23:02:57;16.50;54.40
45233;DHT22;30969;51.052;17.056;2023-09-30T23:08:01;16.50;54.40
45233;DHT22;30969;51.052;17.056;2023-09-30T23:13:04;16.40;54.40
45233;DHT22;30969;51.052;17.056;2023-09-30T23:18:10;16.30;54.50
45233;DHT22;30969;51.052;17.056;2023-09-30T23:23:13;16.20;54.60
45233;DHT22;30969;51.052;17.056;2023-09-30T23:28:17;16.20;54.70
45233;DHT22;30969;51.052;17.056;2023-09-30T23:33:25;16.10;54.60
45233;DHT22;30969;51.052;17.056;2023-09-30T23:38:28;16.10;55.10
45233;DHT22;30969;51.052;17.056;2023-09-30T23:43:32;16.00;55.30
45233;DHT22;30969;51.052;17.056;2023-09-30T23:48:37;16.00;55.00
45233;DHT22;30969;51.052;17.056;2023-09-30T23:53:41;15.90;54.90
45233;DHT22;30969;51.052;17.056;2023-09-30T23:58:47;15.90;54.90
